Time;durP1;ratioP1;P1;durP2;ratioP2;P2;SDS_P1;SDS_P2;PMS_P1;PMS_P2;Temp;Humidity;BMP_temperature;BMP_pressure;BME280_temperature;BME280_humidity;BME280_pressure;Samples;Min_cycle;Max_cycle;Signal;HPM_P1;HPM_P2
2023/12/21 00:00:52;;;;;;;7.90;3.38;;;10.70;99.90;;;;;;5059071;28;20040;-72
2023/12/21 00:03:18;;;;;;;4.60;1.13;;;10.70;99.90;;;;;;5059184;28;20146;-72
2023/12/21 00:05:44;;;;;;;4.45;1.17;;;10.60;99.90;;;;;;5055223;28;20051;-71
2023/12/21 00:08:09;;;;;;;8.18;1.08;;;10.70;99.90;;;;;;5062511;28;20480;-71
2023/12/21 00:10:35;;;;;;;7.32;1.38;;;10.60;99.90;;;;;;5058038;28;20029;-72
2023/12/21 00:13:01;;;;;;;5.72;1.15;;;10.60;99.90;;;;;;5082883;28;20075;-72
2023/12/21 00:15:26;;;;;;;2.83;1.05;;;10.60;99.90;;;;;;5074208;28;20555;-72
2023/12/21 00:17:52;;;;;;;1.25;0.55;;;10.60;99.90;;;;;;5060212;28;20029;-71
2023/12/21 00:20:20;;;;;;;9.55;1.92;;;10.60;99.90;;;;;;5058552;28;20542;-72
2023/12/21 00:22:46;;;;;;;2.55;1.63;;;10.60;99.90;;;;;;5062923;28;20035;-71
2023/12/21 00:25:12;;;;;;;4.95;1.10;;;10.60;99.90;;;;;;5057621;28;20775;-71
2023/12/21 00:27:38;;;;;;;3.45;0.80;;;10.60;99.90;;;;;;5058926;28;20033;-72
2023/12/21 00:30:05;;;;;;;3.85;1.83;;;10.60;99.90;;;;;;5060964;28;20477;-72
2023/12/21 00:32:30;;;;;;;5.97;1.63;;;10.70;99.90;;;;;;5055480;28;20481;-72
2023/12/21 00:34:56;;;;;;;1.05;1.00;;;10.70;99.90;;;;;;5060664;28;20037;-71
2023/12/21 00:37:22;;;;;;;8.57;1.60;;;10.70;99.90;;;;;;5063764;28;20595;-71
2023/12/21 00:39:48;;;;;;;2.00;0.60;;;10.80;99.90;;;;;;5053826;28;20036;-71
2023/12/21 00:42:13;;;;;;;5.35;0.93;;;10.80;99.90;;;;;;5061621;28;20043;-72
2023/12/21 00:44:39;;;;;;;10.63;2.38;;;10.80;99.90;;;;;;5057852;28;20040;-72
2023/12/21 00:47:05;;;;;;;7.05;0.70;;;10.80;99.90;;;;;;5057041;28;20028;-70
2023/12/21 00:49:31;;;;;;;2.17;0.80;;;10.80;99.90;;;;;;5063604;28;20094;-72
2023/12/21 00:51:56;;;;;;;4.28;1.00;;;10.90;99.90;;;;;;5055210;28;20995;-72
2023/12/21 00:54:22;;;;;;;2.15;0.75;;;10.80;99.90;;;;;;5055434;28;20085;-72
2023/12/21 00:56:48;;;;;;;11.68;0.88;;;10.80;99.90;;;;;;5054463;28;20028;-72
2023/12/21 00:59:13;;;;;;;0.90;0.70;;;10.80;99.90;;;;;;5055537;28;20017;-72
2023/12/21 01:01:39;;;;;;;6.13;1.15;;;10.80;99.90;;;;;;5059570;28;20040;-72
2023/12/21 01:04:05;;;;;;;6.15;1.38;;;10.80;99.90;;;;;;5058751;28;20417;-72
2023/12/21 01:06:30;;;;;;;11.30;1.30;;;10.80;99.90;;;;;;5054667;28;20028;-72
2023/12/21 01:08:56;;;;;;;5.47;1.15;;;10.90;99.90;;;;;;5062249;28;21070;-72
2023/12/21 01:11:21;;;;;;;12.80;1.27;;;10.90;99.90;;;;;;5057544;28;20506;-71
2023/12/21 01:13:47;;;;;;;3.20;0.68;;;10.90;99.90;;;;;;5057129;28;20040;-71
2023/12/21 01:16:15;;;;;;;2.20;0.70;;;10.90;99.90;;;;;;5058264;28;20024;-71
2023/12/21 01:18:41;;;;;;;4.55;1.05;;;11.00;99.90;;;;;;5056660;28;20028;-71
2023/12/21 01:21:07;;;;;;;4.90;2.08;;;11.00;99.90;;;;;;5058474;28;20016;-72
2023/12/21 01:23:33;;;;;;;2.42;0.30;;;11.10;99.90;;;;;;5062426;28;20553;-71
2023/12/21 01:25:58;;;;;;;7.95;0.63;;;11.00;99.90;;;;;;5054213;28;20036;-72
2023/12/21 01:28:24;;;;;;;3.65;0.98;;;11.00;99.90;;;;;;5060372;28;20093;-71
2023/12/21 01:30:50;;;;;;;3.45;0.95;;;11.00;99.90;;;;;;5058085;28;20040;-71
2023/12/21 01:33:15;;;;;;;4.47;0.82;;;11.00;99.90;;;;;;5051591;28;20090;-72
2023/12/21 01:35:41;;;;;;;2.63;0.32;;;11.00;99.90;;;;;;5056395;28;20063;-72
2023/12/21 01:38:07;;;;;;;11.85;1.25;;;10.90;99.90;;;;;;5057765;28;20094;-72
2023/12/21 01:40:32;;;;;;;0.30;0.30;;;11.00;99.90;;;;;;5055496;28;20040;-72
2023/12/21 01:42:58;;;;;;;1.67;0.77;;;10.90;99.90;;;;;;5057486;28;20136;-72
2023/12/21 01:45:24;;;;;;;1.98;0.55;;;10.90;99.90;;;;;;5054274;28;22676;-71
2023/12/21 01:47:51;;;;;;;2.30;0.20;;;10.90;99.90;;;;;;5058064;28;20056;-72
2023/12/21 01:50:17;;;;;;;4.43;0.93;;;11.00;99.90;;;;;;5064192;28;20049;-71
2023/12/21 01:52:44;;;;;;;1.63;0.57;;;11.00;99.90;;;;;;5060465;28;20435;-70
2023/12/21 01:55:12;;;;;;;1.48;0.43;;;11.00;99.90;;;;;;5060633;28;20024;-72
2023/12/21 01:57:38;;;;;;;1.25;0.45;;;11.00;99.90;;;;;;5061355;28;20561;-71
2023/12/21 02:00:04;;;;;;;2.15;0.50;;;11.00;99.90;;;;;;5053930;28;20040;-72
2023/12/21 02:02:30;;;;;;;1.05;0.60;;;11.10;99.90;;;;;;5059635;28;20032;-71
2023/12/21 02:04:56;;;;;;;6.03;1.75;;;11.10;99.90;;;;;;5042732;28;20112;-71
2023/12/21 02:07:22;;;;;;;1.08;0.65;;;11.10;99.90;;;;;;5051540;28;20043;-72
2023/12/21 02:09:48;;;;;;;3.83;0.68;;;11.10;99.90;;;;;;5062631;28;20408;-71
2023/12/21 02:12:13;;;;;;;0.55;0.55;;;11.20;99.90;;;;;;5055135;28;20067;-71
2023/12/21 02:14:39;;;;;;;0.50;0.50;;;11.10;99.90;;;;;;5055785;28;20044;-72
2023/12/21 02:17:11;;;;;;;2.25;0.63;;;11.10;99.90;;;;;;5059311;28;21020;-71
2023/12/21 02:19:38;;;;;;;2.30;0.55;;;11.10;99.90;;;;;;5053883;28;20055;-71
2023/12/21 02:22:04;;;;;;;0.15;0.15;;;11.10;99.90;;;;;;5062492;28;21133;-70
2023/12/21 02:24:30;;;;;;;1.45;0.40;;;11.10;99.90;;;;;;5065936;28;20033;-71
2023/12/21 02:26:56;;;;;;;0.47;0.25;;;11.20;99.90;;;;;;5059025;28;20035;-71
2023/12/21 02:29:22;;;;;;;1.40;0.43;;;11.20;99.90;;;;;;5065663;28;20508;-70
2023/12/21 02:31:48;;;;;;;0.68;0.20;;;11.20;99.90;;;;;;5060822;28;20039;-72
2023/12/21 02:34:13;;;;;;;1.20;0.43;;;11.20;99.90;;;;;;5063545;28;20024;-70
2023/12/21 02:36:39;;;;;;;3.15;0.82;;;11.20;99.90;;;;;;5060212;28;20040;-72
2023/12/21 02:39:04;;;;;;;2.35;0.63;;;11.20;99.90;;;;;;5060688;28;20450;-71
2023/12/21 02:41:30;;;;;;;3.00;0.32;;;11.30;99.90;;;;;;5060821;28;20082;-72
2023/12/21 02:43:56;;;;;;;0.10;0.10;;;11.30;99.90;;;;;;5065246;28;20102;-71
2023/12/21 02:46:25;;;;;;;1.45;0.90;;;11.30;99.90;;;;;;5061418;28;20928;-72
2023/12/21 02:48:51;;;;;;;2.33;0.70;;;11.30;99.90;;;;;;5064253;28;20680;-72
2023/12/21 02:51:17;;;;;;;2.25;0.32;;;11.20;99.90;;;;;;5065678;28;20128;-70
2023/12/21 02:53:43;;;;;;;0.35;0.30;;;11.20;99.90;;;;;;5062546;28;20107;-72
2023/12/21 02:56:08;;;;;;;1.05;0.17;;;11.30;99.90;;;;;;5061392;28;20037;-71
2023/12/21 02:58:34;;;;;;;0.43;0.30;;;11.30;99.90;;;;;;5059764;28;20056;-71
2023/12/21 03:01:01;;;;;;;0.30;0.30;;;11.30;99.90;;;;;;5070757;28;20033;-72
2023/12/21 03:03:27;;;;;;;0.50;0.50;;;11.30;99.90;;;;;;5087548;28;20100;-71
2023/12/21 03:05:52;;;;;;;5.28;0.50;;;11.40;99.90;;;;;;5057300;28;20026;-72
2023/12/21 03:08:18;;;;;;;0.40;0.28;;;11.30;99.90;;;;;;5060993;28;20519;-72
2023/12/21 03:10:44;;;;;;;0.20;0.20;;;11.30;99.90;;;;;;5061868;28;20079;-71
2023/12/21 03:13:09;;;;;;;0.45;0.22;;;11.30;99.90;;;;;;5059422;28;20052;-71
2023/12/21 03:15:35;;;;;;;1.13;0.20;;;11.30;99.90;;;;;;5060470;28;20024;-70
2023/12/21 03:18:01;;;;;;;0.40;0.40;;;11.30;99.90;;;;;;5061644;28;20751;-70
2023/12/21 03:20:26;;;;;;;0.20;0.10;;;11.20;99.90;;;;;;5056889;28;20075;-72
2023/12/21 03:22:52;;;;;;;0.10;0.10;;;11.20;99.90;;;;;;5067374;28;20036;-72
2023/12/21 03:25:17;;;;;;;0.00;0.00;;;11.10;99.90;;;;;;5062171;28;20043;-71
2023/12/21 03:27:43;;;;;;;1.40;0.20;;;11.20;99.90;;;;;;5058012;28;20193;-72
2023/12/21 03:30:10;;;;;;;3.25;0.30;;;11.20;99.90;;;;;;5060499;28;20039;-71
2023/12/21 03:32:36;;;;;;;0.30;0.30;;;11.20;99.90;;;;;;5064331;28;20021;-72
2023/12/21 03:35:03;;;;;;;0.10;0.10;;;11.20;99.90;;;;;;5065570;28;20032;-72
2023/12/21 03:37:29;;;;;;;0.10;0.10;;;11.30;99.90;;;;;;5063378;28;20516;-71
2023/12/21 03:39:56;;;;;;;0.10;0.10;;;11.40;99.90;;;;;;5056640;28;20156;-70
2023/12/21 03:42:22;;;;;;;0.05;0.05;;;11.50;99.90;;;;;;5058824;28;20037;-71
2023/12/21 03:44:48;;;;;;;0.10;0.10;;;11.50;99.90;;;;;;5059582;28;20123;-71
2023/12/21 03:47:13;;;;;;;0.10;0.10;;;11.50;99.90;;;;;;5039572;28;20462;-72
2023/12/21 03:49:39;;;;;;;0.20;0.20;;;11.50;99.90;;;;;;5059512;28;20036;-72
2023/12/21 03:52:06;;;;;;;0.82;0.22;;;11.50;99.90;;;;;;5063288;28;20025;-71
2023/12/21 03:54:31;;;;;;;1.25;0.30;;;11.50;99.90;;;;;;5062351;28;20028;-71
2023/12/21 03:56:57;;;;;;;2.20;0.30;;;11.60;99.90;;;;;;5068128;28;20385;-73
2023/12/21 03:59:23;;;;;;;0.77;0.40;;;11.60;99.90;;;;;;5057665;28;20044;-72
2023/12/21 04:01:48;;;;;;;1.48;0.60;;;11.60;99.90;;;;;;5055909;28;20522;-71
2023/12/21 04:04:14;;;;;;;0.43;0.13;;;11.70;99.90;;;;;;5060454;28;21329;-71
2023/12/21 04:06:40;;;;;;;0.90;0.30;;;11.60;99.90;;;;;;5054981;28;20106;-72
2023/12/21 04:09:06;;;;;;;1.95;0.20;;;11.70;99.90;;;;;;5061991;28;20033;-72
2023/12/21 04:11:31;;;;;;;1.67;0.20;;;11.70;99.90;;;;;;5059083;28;20754;-72
2023/12/21 04:13:57;;;;;;;0.10;0.10;;;11.70;99.90;;;;;;5057150;28;20393;-71
2023/12/21 04:16:23;;;;;;;0.10;0.10;;;11.70;99.90;;;;;;5058979;28;20516;-71
2023/12/21 04:18:48;;;;;;;0.30;0.10;;;11.70;99.90;;;;;;5059615;28;20503;-71
2023/12/21 04:21:14;;;;;;;2.28;0.88;;;11.70;99.90;;;;;;5054296;28;21603;-71
2023/12/21 04:23:39;;;;;;;2.90;0.20;;;11.80;99.90;;;;;;5064367;28;20047;-71
2023/12/21 04:26:05;;;;;;;0.17;0.17;;;11.80;99.90;;;;;;5060336;28;20056;-71
2023/12/21 04:28:32;;;;;;;1.30;0.40;;;11.80;99.90;;;;;;5061078;28;20036;-71
2023/12/21 04:30:58;;;;;;;0.10;0.10;;;11.80;99.90;;;;;;5059279;28;20029;-71
2023/12/21 04:33:23;;;;;;;0.60;0.30;;;11.80;99.90;;;;;;5057723;28;20035;-72
2023/12/21 04:35:49;;;;;;;0.28;0.28;;;11.90;99.90;;;;;;5060691;28;20549;-70
2023/12/21 04:38:15;;;;;;;3.10;0.75;;;11.90;99.90;;;;;;5062193;28;20650;-71
2023/12/21 04:40:40;;;;;;;1.02;0.10;;;12.00;99.90;;;;;;5056182;28;20032;-71
2023/12/21 04:43:06;;;;;;;1.25;0.50;;;12.00;99.90;;;;;;5065997;28;20094;-71
2023/12/21 04:45:32;;;;;;;0.10;0.10;;;12.10;99.90;;;;;;5060905;28;20360;-71
2023/12/21 04:47:58;;;;;;;0.10;0.10;;;12.10;99.90;;;;;;5054711;28;20406;-71
2023/12/21 04:50:24;;;;;;;0.30;0.30;;;12.20;99.90;;;;;;5061652;28;20060;-71
2023/12/21 04:52:51;;;;;;;0.30;0.10;;;12.20;99.90;;;;;;5061840;28;20063;-72
2023/12/21 04:55:17;;;;;;;0.10;0.10;;;12.30;99.90;;;;;;5058771;28;20028;-70
2023/12/21 04:57:43;;;;;;;0.32;0.10;;;12.20;99.90;;;;;;5062979;28;20350;-71
2023/12/21 05:00:09;;;;;;;0.10;0.10;;;12.20;99.90;;;;;;5056940;28;20028;-71
2023/12/21 05:02:35;;;;;;;0.10;0.10;;;12.20;99.90;;;;;;5053996;28;20037;-71
2023/12/21 05:05:00;;;;;;;0.20;0.20;;;12.20;99.90;;;;;;5046999;28;20027;-71
2023/12/21 05:07:26;;;;;;;0.80;0.80;;;12.10;99.90;;;;;;5060163;28;20492;-71
2023/12/21 05:09:58;;;;;;;0.20;0.20;;;12.00;99.90;;;;;;5058176;28;20038;-71
2023/12/21 05:12:26;;;;;;;0.10;0.10;;;11.90;99.90;;;;;;5052579;28;20056;-72
2023/12/21 05:14:52;;;;;;;0.88;0.20;;;12.00;99.90;;;;;;5057523;28;20028;-72
2023/12/21 05:17:19;;;;;;;0.28;0.10;;;11.90;99.90;;;;;;5056816;28;20028;-71
2023/12/21 05:19:46;;;;;;;0.10;0.10;;;11.80;99.90;;;;;;5053603;28;20036;-70
2023/12/21 05:22:12;;;;;;;1.98;0.10;;;11.80;99.90;;;;;;5055650;28;20040;-70
2023/12/21 05:24:38;;;;;;;1.88;0.20;;;11.80;99.90;;;;;;5059040;28;20040;-72
2023/12/21 05:27:05;;;;;;;1.35;0.45;;;11.70;99.90;;;;;;5056004;28;20025;-71
2023/12/21 05:29:30;;;;;;;0.10;0.10;;;11.70;99.90;;;;;;5063008;28;20078;-71
2023/12/21 05:31:56;;;;;;;0.43;0.20;;;11.80;99.90;;;;;;5062879;28;20688;-71
2023/12/21 05:34:22;;;;;;;2.40;0.20;;;11.80;99.90;;;;;;5054915;28;20570;-72
2023/12/21 05:36:47;;;;;;;0.65;0.17;;;11.80;99.90;;;;;;5061860;28;20029;-71
2023/12/21 05:39:13;;;;;;;0.52;0.20;;;11.80;99.90;;;;;;5060988;28;20025;-71
2023/12/21 05:41:40;;;;;;;2.00;0.40;;;11.70;99.90;;;;;;5056711;28;20496;-72
2023/12/21 05:44:05;;;;;;;0.77;0.55;;;11.60;99.90;;;;;;5061353;28;20314;-73
2023/12/21 05:46:31;;;;;;;2.08;0.22;;;11.70;99.90;;;;;;5055816;28;20034;-72
2023/12/21 05:48:57;;;;;;;1.15;0.30;;;11.60;99.90;;;;;;5072947;28;20035;-71
2023/12/21 05:51:22;;;;;;;0.45;0.10;;;11.60;99.90;;;;;;5084397;28;20079;-70
2023/12/21 05:53:48;;;;;;;0.47;0.30;;;11.60;99.90;;;;;;5059686;28;20802;-70
2023/12/21 05:56:14;;;;;;;2.85;0.45;;;11.60;99.90;;;;;;5058957;28;20079;-71
2023/12/21 05:58:39;;;;;;;0.50;0.50;;;11.60;99.90;;;;;;5058648;28;21340;-71
2023/12/21 06:01:05;;;;;;;3.92;0.88;;;11.60;99.90;;;;;;5055845;28;20033;-71
2023/12/21 06:03:30;;;;;;;5.32;0.30;;;11.70;99.90;;;;;;5061535;28;20052;-71
2023/12/21 06:05:56;;;;;;;2.08;0.20;;;11.70;99.90;;;;;;5057446;28;20520;-71
2023/12/21 06:08:22;;;;;;;0.47;0.20;;;11.60;99.90;;;;;;5060529;28;20032;-71
2023/12/21 06:10:48;;;;;;;0.10;0.10;;;11.60;99.90;;;;;;5066114;28;20074;-70
2023/12/21 06:13:13;;;;;;;4.85;0.32;;;11.60;99.90;;;;;;5063210;28;20119;-71
2023/12/21 06:15:39;;;;;;;1.80;0.55;;;11.70;99.90;;;;;;5061574;28;20506;-71
2023/12/21 06:18:05;;;;;;;0.15;0.15;;;11.70;99.90;;;;;;5067307;28;20444;-72
2023/12/21 06:20:34;;;;;;;0.57;0.20;;;11.80;99.90;;;;;;5050806;28;20103;-71
2023/12/21 06:23:00;;;;;;;1.10;0.20;;;11.80;99.90;;;;;;5062096;28;20052;-72
2023/12/21 06:25:26;;;;;;;0.47;0.38;;;11.80;99.90;;;;;;5049723;28;20123;-70
2023/12/21 06:27:51;;;;;;;0.30;0.10;;;11.90;99.90;;;;;;5056058;28;20419;-71
2023/12/21 06:30:17;;;;;;;2.08;1.00;;;11.90;99.90;;;;;;5062423;28;20047;-71
2023/12/21 06:32:43;;;;;;;0.47;0.30;;;12.00;99.90;;;;;;5063512;28;20392;-71
2023/12/21 06:35:09;;;;;;;0.40;0.20;;;11.90;99.90;;;;;;5059063;28;20033;-72
2023/12/21 06:37:34;;;;;;;0.73;0.40;;;11.80;99.90;;;;;;5064234;28;20032;-71
2023/12/21 06:40:01;;;;;;;0.73;0.10;;;11.80;99.90;;;;;;5062663;28;20209;-72
2023/12/21 06:42:27;;;;;;;0.32;0.10;;;11.90;99.90;;;;;;5062077;28;20131;-72
2023/12/21 06:44:53;;;;;;;0.10;0.10;;;11.90;99.90;;;;;;5064842;28;20113;-72
2023/12/21 06:47:18;;;;;;;2.55;0.20;;;11.90;99.90;;;;;;5060347;28;20357;-71
2023/12/21 06:49:44;;;;;;;0.77;0.47;;;11.90;99.90;;;;;;5063377;28;20067;-72
2023/12/21 06:52:10;;;;;;;2.75;0.10;;;11.90;99.90;;;;;;5065438;28;20495;-72
2023/12/21 06:54:35;;;;;;;0.10;0.10;;;11.80;99.90;;;;;;5057473;28;20531;-71
2023/12/21 06:57:01;;;;;;;3.33;0.17;;;11.90;99.90;;;;;;5057600;28;21106;-72
2023/12/21 06:59:28;;;;;;;0.20;0.20;;;11.90;99.90;;;;;;5064835;28;20408;-71
2023/12/21 07:01:54;;;;;;;2.58;0.40;;;11.90;99.90;;;;;;5057476;28;20046;-71
2023/12/21 07:04:20;;;;;;;1.92;0.28;;;12.00;99.90;;;;;;5051979;28;21220;-71
2023/12/21 07:06:45;;;;;;;1.10;0.45;;;12.10;99.90;;;;;;5062704;28;20041;-72
2023/12/21 07:09:11;;;;;;;0.40;0.32;;;12.20;99.90;;;;;;5059959;28;20032;-70
2023/12/21 07:11:37;;;;;;;1.05;0.50;;;12.20;99.90;;;;;;5051804;28;20170;-71
2023/12/21 07:14:02;;;;;;;4.90;0.60;;;12.30;99.90;;;;;;5053057;28;20492;-71
2023/12/21 07:16:28;;;;;;;0.98;0.28;;;12.30;99.90;;;;;;5061065;28;20107;-71
2023/12/21 07:18:54;;;;;;;1.52;0.40;;;12.30;99.90;;;;;;5063031;28;20032;-72
2023/12/21 07:21:19;;;;;;;0.13;0.13;;;12.30;99.90;;;;;;5055194;28;20451;-73
2023/12/21 07:23:45;;;;;;;0.17;0.13;;;12.30;99.90;;;;;;5063481;28;20438;-71
2023/12/21 07:26:11;;;;;;;2.05;0.57;;;;;;;;;;5060382;28;20425;-70
2023/12/21 07:28:37;;;;;;;2.67;0.43;;;12.30;99.90;;;;;;5056307;28;20757;-71
2023/12/21 07:31:03;;;;;;;1.90;0.43;;;12.40;99.90;;;;;;5059575;28;20050;-70
2023/12/21 07:33:28;;;;;;;0.60;0.28;;;12.40;99.90;;;;;;5064675;28;20079;-71
2023/12/21 07:35:54;;;;;;;0.40;0.32;;;12.40;99.90;;;;;;5059480;28;20482;-71
2023/12/21 07:38:19;;;;;;;1.40;0.60;;;12.40;99.90;;;;;;5061904;28;20050;-71
2023/12/21 07:40:45;;;;;;;0.60;0.47;;;12.40;99.90;;;;;;5062122;28;20036;-71
2023/12/21 07:43:11;;;;;;;1.02;0.40;;;12.40;99.90;;;;;;5060029;28;20028;-71
2023/12/21 07:45:37;;;;;;;1.52;0.40;;;12.40;99.90;;;;;;5060134;28;20037;-72
2023/12/21 07:48:03;;;;;;;1.08;0.57;;;12.40;99.90;;;;;;5057672;28;21168;-71
2023/12/21 07:50:29;;;;;;;0.20;0.10;;;12.30;99.90;;;;;;5058838;28;20170;-71
2023/12/21 07:52:56;;;;;;;1.02;0.40;;;12.40;99.90;;;;;;5060439;28;20101;-72
2023/12/21 07:55:23;;;;;;;0.32;0.20;;;12.40;99.90;;;;;;5057566;28;20033;-71
2023/12/21 07:57:48;;;;;;;1.13;0.70;;;12.40;99.90;;;;;;5062406;28;20024;-71
2023/12/21 08:00:14;;;;;;;0.40;0.30;;;12.40;99.90;;;;;;5059224;28;20040;-72
2023/12/21 08:02:44;;;;;;;0.10;0.10;;;12.40;99.90;;;;;;5059151;28;20028;-72
2023/12/21 08:05:11;;;;;;;0.93;0.60;;;12.40;99.90;;;;;;5063753;28;20435;-71
2023/12/21 08:07:37;;;;;;;0.90;0.40;;;12.40;99.90;;;;;;5055217;28;20047;-72
2023/12/21 08:10:04;;;;;;;0.20;0.20;;;12.40;99.90;;;;;;5061700;28;20024;-72
2023/12/21 08:12:30;;;;;;;1.35;0.20;;;12.40;99.90;;;;;;5061690;28;20059;-71
2023/12/21 08:14:55;;;;;;;0.17;0.17;;;12.40;99.90;;;;;;5057248;28;20485;-70
2023/12/21 08:17:21;;;;;;;0.47;0.22;;;12.40;99.90;;;;;;5061855;28;20078;-71
2023/12/21 08:19:46;;;;;;;1.33;0.17;;;12.40;99.90;;;;;;5067515;28;20189;-71
2023/12/21 08:22:12;;;;;;;4.65;0.22;;;12.40;99.90;;;;;;5062401;28;20036;-71
2023/12/21 08:24:38;;;;;;;1.65;0.75;;;12.40;99.90;;;;;;5061991;28;20121;-72
2023/12/21 08:27:06;;;;;;;2.20;0.52;;;12.40;99.90;;;;;;5062890;28;20728;-71
2023/12/21 08:29:31;;;;;;;0.52;0.32;;;12.40;99.90;;;;;;5055211;28;20044;-72
2023/12/21 08:31:57;;;;;;;0.28;0.28;;;12.40;99.90;;;;;;5059998;28;20036;-71
2023/12/21 08:34:23;;;;;;;0.30;0.30;;;12.40;99.90;;;;;;5058142;28;20056;-71
2023/12/21 08:36:49;;;;;;;1.98;0.55;;;12.40;99.90;;;;;;5074917;28;20016;-71
2023/12/21 08:39:15;;;;;;;6.82;0.20;;;12.40;99.90;;;;;;5081457;28;20155;-71
2023/12/21 08:41:41;;;;;;;1.17;0.50;;;12.40;99.90;;;;;;5066911;28;20245;-71
2023/12/21 08:44:07;;;;;;;1.02;0.75;;;12.40;99.90;;;;;;5067611;28;20464;-70
2023/12/21 08:46:33;;;;;;;6.53;0.60;;;12.50;99.90;;;;;;5066065;28;20024;-71
2023/12/21 08:48:58;;;;;;;0.52;0.22;;;12.50;99.90;;;;;;5056703;28;20044;-70
2023/12/21 08:51:24;;;;;;;2.45;0.63;;;12.50;99.90;;;;;;5063060;28;20058;-71
2023/12/21 08:53:50;;;;;;;4.68;0.50;;;12.50;99.90;;;;;;5058920;28;20036;-71
2023/12/21 08:56:15;;;;;;;1.30;0.60;;;12.50;99.90;;;;;;5054301;28;20028;-71
2023/12/21 08:58:41;;;;;;;4.05;0.63;;;12.50;99.90;;;;;;5059835;28;20559;-72
2023/12/21 09:01:07;;;;;;;1.35;0.45;;;12.50;99.90;;;;;;5055922;28;20119;-70
2023/12/21 09:03:32;;;;;;;2.78;0.73;;;12.50;99.90;;;;;;5058509;28;20029;-71
2023/12/21 09:05:58;;;;;;;2.38;0.70;;;12.50;99.90;;;;;;5062327;28;20577;-70
2023/12/21 09:08:23;;;;;;;4.45;1.10;;;12.50;99.90;;;;;;5058246;28;20048;-71
2023/12/21 09:10:49;;;;;;;9.75;0.75;;;12.50;99.90;;;;;;5059767;28;20373;-71
2023/12/21 09:13:15;;;;;;;6.45;0.90;;;12.40;99.90;;;;;;5061467;28;20497;-71
2023/12/21 09:15:40;;;;;;;0.75;0.40;;;12.40;99.90;;;;;;5050816;28;20507;-71
2023/12/21 09:18:06;;;;;;;1.60;0.30;;;12.40;99.90;;;;;;5060568;28;20069;-71
2023/12/21 09:20:32;;;;;;;3.13;0.88;;;12.40;99.90;;;;;;5062142;28;20028;-70
2023/12/21 09:22:58;;;;;;;0.75;0.28;;;12.30;99.90;;;;;;5060626;28;20033;-71
2023/12/21 09:25:23;;;;;;;1.95;0.30;;;12.30;99.90;;;;;;5061825;28;20021;-70
2023/12/21 09:27:49;;;;;;;4.40;0.60;;;12.30;99.90;;;;;;5057354;28;21053;-71
2023/12/21 09:30:16;;;;;;;1.88;0.30;;;12.30;99.90;;;;;;5054559;28;20123;-71
2023/12/21 09:32:42;;;;;;;0.93;0.57;;;12.30;99.90;;;;;;5064937;28;20032;-71
2023/12/21 09:35:09;;;;;;;0.25;0.25;;;12.30;99.90;;;;;;5055844;28;20025;-71
2023/12/21 09:37:35;;;;;;;2.20;0.60;;;12.30;99.90;;;;;;5060596;28;20035;-72
2023/12/21 09:40:02;;;;;;;1.20;0.68;;;12.20;99.90;;;;;;5062659;28;20028;-70
2023/12/21 09:42:29;;;;;;;4.55;0.60;;;12.30;99.90;;;;;;5054342;28;20352;-71
2023/12/21 09:44:55;;;;;;;0.10;0.10;;;12.30;99.90;;;;;;5059730;28;20029;-71
2023/12/21 09:47:23;;;;;;;0.95;0.43;;;;;;;;;;5058614;28;20045;-71
2023/12/21 09:49:50;;;;;;;0.15;0.15;;;12.30;99.90;;;;;;5051650;28;20554;-71
2023/12/21 09:52:18;;;;;;;4.03;0.95;;;12.40;99.90;;;;;;5043969;28;20068;-71
2023/12/21 09:54:45;;;;;;;4.22;0.47;;;12.40;99.90;;;;;;5057824;28;20379;-71
2023/12/21 09:57:12;;;;;;;2.85;0.40;;;12.40;99.90;;;;;;5058507;28;20148;-72
2023/12/21 09:59:38;;;;;;;4.43;0.43;;;12.40;99.90;;;;;;5058907;28;20064;-71
2023/12/21 10:02:11;;;;;;;2.80;0.85;;;12.40;99.90;;;;;;5048479;28;20170;-70
2023/12/21 10:04:40;;;;;;;4.63;0.57;;;12.40;99.90;;;;;;5057063;28;20128;-72
2023/12/21 10:07:08;;;;;;;1.40;0.52;;;12.40;99.90;;;;;;5056906;28;20032;-71
2023/12/21 10:09:34;;;;;;;0.80;0.28;;;12.30;99.90;;;;;;5060205;28;20119;-71
2023/12/21 10:12:00;;;;;;;0.85;0.30;;;12.30;99.90;;;;;;5059028;28;20452;-72
2023/12/21 10:14:27;;;;;;;1.15;0.40;;;12.30;99.90;;;;;;5058897;28;20166;-71
2023/12/21 10:16:53;;;;;;;0.43;0.43;;;12.30;99.90;;;;;;5058884;28;20036;-70
2023/12/21 10:19:19;;;;;;;6.18;0.50;;;12.30;99.90;;;;;;5064780;28;20067;-72
2023/12/21 10:21:46;;;;;;;0.43;0.35;;;12.40;99.90;;;;;;5062613;28;20036;-72
2023/12/21 10:24:12;;;;;;;2.55;0.30;;;12.40;99.90;;;;;;5059336;28;20024;-71
2023/12/21 10:26:43;;;;;;;1.70;0.35;;;12.50;99.90;;;;;;5064929;28;20036;-71
2023/12/21 10:29:09;;;;;;;1.77;0.68;;;12.50;99.90;;;;;;5058135;28;20048;-71
2023/12/21 10:31:35;;;;;;;3.58;0.40;;;12.60;99.90;;;;;;5062524;28;20040;-71
2023/12/21 10:34:02;;;;;;;0.68;0.30;;;12.50;99.90;;;;;;5056997;28;20028;-71
2023/12/21 10:36:28;;;;;;;0.88;0.57;;;12.60;99.90;;;;;;5056293;28;20060;-71
2023/12/21 10:38:53;;;;;;;0.70;0.32;;;12.60;99.90;;;;;;5063377;28;20093;-73
2023/12/21 10:41:20;;;;;;;0.38;0.22;;;12.60;99.90;;;;;;5063813;28;20032;-71
2023/12/21 10:43:45;;;;;;;8.02;0.93;;;12.70;99.90;;;;;;5059323;28;20035;-70
2023/12/21 10:46:15;;;;;;;4.40;0.50;;;12.70;99.90;;;;;;5061528;28;20029;-70
2023/12/21 10:48:41;;;;;;;3.17;1.55;;;12.70;99.90;;;;;;5059015;28;20028;-71
2023/12/21 10:51:07;;;;;;;0.68;0.30;;;12.70;99.90;;;;;;5061297;28;20407;-70
2023/12/21 10:53:34;;;;;;;1.08;0.75;;;12.80;99.90;;;;;;5062426;28;20492;-71
2023/12/21 10:56:01;;;;;;;1.90;0.50;;;12.80;99.90;;;;;;5063259;28;20021;-71
2023/12/21 10:58:27;;;;;;;0.68;0.43;;;12.90;99.90;;;;;;5070294;28;20025;-71
2023/12/21 11:00:55;;;;;;;1.70;0.40;;;13.00;99.90;;;;;;5067017;28;20545;-71
2023/12/21 11:03:21;;;;;;;1.85;0.50;;;13.00;99.90;;;;;;5065126;28;20024;-71
2023/12/21 11:05:47;;;;;;;0.95;0.32;;;13.00;99.90;;;;;;5064452;28;20366;-71
2023/12/21 11:08:13;;;;;;;4.32;1.33;;;13.10;99.90;;;;;;5057380;28;20423;-71
2023/12/21 11:10:39;;;;;;;4.45;0.52;;;13.20;99.90;;;;;;5062894;28;20028;-71
2023/12/21 11:13:04;;;;;;;2.88;0.50;;;13.30;99.90;;;;;;5066336;28;20116;-72
2023/12/21 11:15:31;;;;;;;2.38;0.40;;;13.30;99.90;;;;;;5058961;28;20480;-71
2023/12/21 11:18:10;;;;;;;2.30;0.52;;;13.50;99.90;;;;;;5063176;28;20033;-70
2023/12/21 11:20:48;;;;;;;1.80;0.57;;;13.60;99.90;;;;;;5064443;28;20094;-70
2023/12/21 11:23:14;;;;;;;5.63;0.75;;;13.60;99.90;;;;;;5079184;28;20033;-71
2023/12/21 11:25:40;;;;;;;2.08;0.80;;;13.60;99.90;;;;;;5079345;28;20438;-71
2023/12/21 11:28:08;;;;;;;1.00;0.40;;;13.70;99.90;;;;;;5063901;28;20024;-71
2023/12/21 11:30:35;;;;;;;5.07;1.00;;;13.70;99.90;;;;;;5060126;28;20373;-71
2023/12/21 11:33:09;;;;;;;3.22;1.15;;;13.80;99.90;;;;;;5061922;28;20040;-70
2023/12/21 11:35:36;;;;;;;1.65;0.65;;;13.80;99.90;;;;;;5038854;28;20056;-71
2023/12/21 11:38:05;;;;;;;3.72;0.77;;;13.90;99.90;;;;;;5064423;28;20032;-70
2023/12/21 11:40:32;;;;;;;7.28;0.70;;;13.90;99.90;;;;;;5064837;28;20017;-72
2023/12/21 11:43:00;;;;;;;5.45;0.82;;;13.80;99.90;;;;;;5059032;28;20077;-71
2023/12/21 11:45:28;;;;;;;4.57;0.90;;;13.80;99.90;;;;;;5059014;28;20032;-71
2023/12/21 11:47:55;;;;;;;1.88;0.77;;;13.70;99.90;;;;;;5061161;28;20037;-71
2023/12/21 11:50:26;;;;;;;2.20;0.52;;;13.80;99.90;;;;;;5055009;28;20055;-72
2023/12/21 11:53:08;;;;;;;2.05;0.57;;;13.70;99.90;;;;;;5063595;28;20425;-71
2023/12/21 11:55:40;;;;;;;6.93;0.50;;;13.70;99.90;;;;;;5059264;28;20083;-71
2023/12/21 11:58:07;;;;;;;0.68;0.40;;;13.70;99.90;;;;;;5060078;28;20090;-71
2023/12/21 12:00:40;;;;;;;3.75;0.82;;;13.70;99.90;;;;;;5058509;28;20037;-70
2023/12/21 12:03:07;;;;;;;1.00;0.70;;;13.70;99.90;;;;;;5058315;28;20024;-69
2023/12/21 12:05:32;;;;;;;2.28;0.30;;;13.70;99.90;;;;;;5060814;28;21485;-71
2023/12/21 12:07:58;;;;;;;1.92;0.50;;;13.70;99.90;;;;;;5053693;28;20040;-73
2023/12/21 12:10:23;;;;;;;4.82;1.05;;;13.70;99.90;;;;;;5053868;28;20550;-71
2023/12/21 12:12:52;;;;;;;1.42;0.50;;;13.80;99.80;;;;;;5063297;28;20037;-70
2023/12/21 12:15:18;;;;;;;0.47;0.20;;;13.90;99.20;;;;;;5062364;28;20081;-71
2023/12/21 12:17:44;;;;;;;3.45;0.55;;;14.00;98.80;;;;;;5045411;28;20029;-72
2023/12/21 12:20:10;;;;;;;1.95;0.63;;;14.00;98.40;;;;;;5066463;28;20062;-72
2023/12/21 12:22:36;;;;;;;1.77;0.75;;;14.00;98.60;;;;;;5057623;28;20043;-71
2023/12/21 12:25:03;;;;;;;1.85;0.50;;;14.10;98.00;;;;;;5060752;28;21153;-72
2023/12/21 12:27:29;;;;;;;1.73;0.30;;;14.20;97.70;;;;;;5061968;28;20044;-71
2023/12/21 12:29:56;;;;;;;3.72;0.40;;;14.30;96.90;;;;;;5056754;28;20037;-72
2023/12/21 12:32:22;;;;;;;1.42;0.43;;;14.40;96.80;;;;;;5060324;28;20420;-72
2023/12/21 12:34:48;;;;;;;0.75;0.52;;;14.50;96.70;;;;;;5064370;28;20070;-72
2023/12/21 12:37:17;;;;;;;0.45;0.20;;;14.50;96.60;;;;;;5055204;28;20445;-71
2023/12/21 12:39:45;;;;;;;0.45;0.45;;;14.50;96.20;;;;;;5062512;28;20047;-72
2023/12/21 12:42:11;;;;;;;2.10;0.30;;;14.50;96.20;;;;;;5057688;28;20037;-71